createdAt,value
2023-04-10T00:00:36.459Z,8.68
2023-04-10T00:01:36.529Z,8.61
2023-04-10T00:02:36.594Z,8.45
2023-04-10T00:03:36.508Z,8.37
2023-04-10T00:04:36.651Z,8.43
2023-04-10T00:05:36.394Z,8.29
2023-04-10T00:06:36.364Z,8.37
2023-04-10T00:07:36.353Z,8.50
2023-04-10T00:08:36.338Z,8.49
2023-04-10T00:09:36.322Z,8.55
2023-04-10T00:10:36.304Z,8.67
2023-04-10T00:11:36.296Z,8.70
2023-04-10T00:12:36.293Z,8.78
2023-04-10T00:13:36.281Z,8.68
2023-04-10T00:14:36.270Z,8.67
2023-04-10T00:15:36.228Z,8.64
2023-04-10T00:16:36.254Z,8.63
2023-04-10T00:17:36.220Z,8.54
2023-04-10T00:18:36.212Z,8.47
2023-04-10T00:19:36.175Z,8.45
2023-04-10T00:20:36.163Z,8.40
2023-04-10T00:21:36.133Z,8.39
2023-04-10T00:22:36.120Z,8.40
2023-04-10T00:23:36.105Z,8.29
2023-04-10T00:24:36.088Z,8.25
2023-04-10T00:25:36.090Z,8.22
2023-04-10T00:26:36.058Z,8.18
2023-04-10T00:27:36.046Z,8.04
2023-04-10T00:28:36.051Z,8.13
2023-04-10T00:29:36.012Z,8.04
2023-04-10T00:30:35.994Z,8.07
2023-04-10T00:31:36.025Z,8.17
2023-04-10T00:32:36.029Z,8.24
2023-04-10T00:33:35.949Z,8.31
2023-04-10T00:34:35.979Z,8.31
2023-04-10T00:35:35.930Z,8.21
2023-04-10T00:36:35.901Z,8.18
2023-04-10T00:37:35.888Z,8.12
2023-04-10T00:38:35.870Z,8.09
2023-04-10T00:39:35.876Z,8.09
2023-04-10T00:40:35.845Z,8.03
2023-04-10T00:41:35.836Z,7.95
2023-04-10T00:42:35.805Z,7.91
2023-04-10T00:43:35.794Z,7.82
2023-04-10T00:44:35.806Z,7.71
2023-04-10T00:45:35.776Z,7.63
2023-04-10T00:46:35.836Z,7.66
2023-04-10T00:47:35.756Z,7.63
2023-04-10T00:48:35.713Z,7.66
2023-04-10T00:49:35.702Z,7.73
2023-04-10T00:50:35.681Z,7.85
2023-04-10T00:51:35.670Z,8.02
2023-04-10T00:52:35.652Z,7.99
2023-04-10T00:53:35.645Z,7.95
2023-04-10T00:54:35.619Z,7.96
2023-04-10T00:55:35.616Z,7.99
2023-04-10T00:56:35.599Z,8.07
2023-04-10T00:57:35.573Z,8.12
2023-04-10T00:58:35.565Z,8.14
2023-04-10T00:59:35.571Z,8.14
2023-04-10T01:00:35.559Z,8.20
2023-04-10T01:01:35.589Z,8.17
2023-04-10T01:02:35.649Z,8.17
2023-04-10T01:03:35.681Z,8.06
2023-04-10T01:04:35.613Z,8.07
2023-04-10T01:05:35.445Z,8.17
2023-04-10T01:06:35.445Z,8.00
2023-04-10T01:07:35.443Z,8.07
2023-04-10T01:08:35.421Z,8.07
2023-04-10T01:09:35.420Z,8.21
2023-04-10T01:10:35.383Z,8.00
2023-04-10T01:11:35.360Z,8.12
2023-04-10T01:12:35.342Z,8.02
2023-04-10T01:13:35.330Z,8.06
2023-04-10T01:14:35.316Z,8.09
2023-04-10T01:15:35.289Z,8.14
2023-04-10T01:16:35.358Z,8.13
2023-04-10T01:17:35.328Z,8.07
2023-04-10T01:18:35.268Z,7.94
2023-04-10T01:19:35.237Z,8.04
2023-04-10T01:20:35.226Z,8.00
2023-04-10T01:21:35.198Z,7.96
2023-04-10T01:22:35.183Z,7.99
2023-04-10T01:23:35.164Z,7.94
2023-04-10T01:24:35.154Z,7.94
2023-04-10T01:25:35.133Z,7.88
2023-04-10T01:26:35.122Z,8.04
2023-04-10T01:27:35.102Z,7.95
2023-04-10T01:28:35.087Z,7.94
2023-04-10T01:29:35.066Z,8.10
2023-04-10T01:30:35.070Z,7.99
2023-04-10T01:31:35.041Z,7.96
2023-04-10T01:32:35.071Z,8.00
2023-04-10T01:33:35.005Z,7.96
2023-04-10T01:34:35.009Z,7.96
2023-04-10T01:35:34.984Z,7.95
2023-04-10T01:36:34.967Z,8.06
2023-04-10T01:37:34.954Z,8.09
2023-04-10T01:38:34.930Z,8.07
2023-04-10T01:39:34.911Z,8.10
2023-04-10T01:40:34.901Z,8.12
2023-04-10T01:41:34.878Z,7.95
2023-04-10T01:42:34.873Z,7.95
2023-04-10T01:43:34.877Z,7.96
2023-04-10T01:44:34.838Z,7.86
2023-04-10T01:45:34.820Z,7.81
2023-04-10T01:46:34.877Z,7.86
2023-04-10T01:47:34.826Z,7.81
2023-04-10T01:48:34.801Z,7.91
2023-04-10T01:49:34.760Z,7.89
2023-04-10T01:50:34.742Z,7.99
2023-04-10T01:51:34.733Z,7.96
2023-04-10T01:52:34.711Z,8.03
2023-04-10T01:53:34.694Z,7.95
2023-04-10T01:54:34.681Z,7.91
2023-04-10T01:55:34.665Z,7.82
2023-04-10T01:56:34.648Z,7.95
2023-04-10T01:57:34.629Z,7.81
2023-04-10T01:58:34.615Z,7.77
2023-04-10T01:59:34.596Z,7.71
2023-04-10T02:00:34.587Z,7.69
2023-04-10T02:01:34.666Z,7.81
2023-04-10T02:02:34.758Z,7.77
2023-04-10T02:03:34.838Z,7.71
2023-04-10T02:04:34.723Z,7.91
2023-04-10T02:05:34.502Z,7.95
2023-04-10T02:06:34.500Z,7.82
2023-04-10T02:07:34.469Z,7.71
2023-04-10T02:08:34.466Z,7.66
2023-04-10T02:09:34.444Z,7.70
2023-04-10T02:10:34.425Z,7.81
2023-04-10T02:11:34.407Z,7.79
2023-04-10T02:12:34.499Z,7.81
2023-04-10T02:13:34.382Z,7.71
2023-04-10T02:14:34.362Z,7.76
2023-04-10T02:15:34.394Z,7.70
2023-04-10T02:16:34.376Z,7.76
2023-04-10T02:17:34.331Z,7.77
2023-04-10T02:18:34.302Z,7.85
2023-04-10T02:19:34.281Z,7.79
2023-04-10T02:20:34.291Z,7.82
2023-04-10T02:21:34.258Z,7.70
2023-04-10T02:22:34.233Z,7.60
2023-04-10T02:23:34.222Z,7.51
2023-04-10T02:24:34.206Z,7.52
2023-04-10T02:25:34.253Z,7.47
2023-04-10T02:26:34.171Z,7.51
2023-04-10T02:27:34.156Z,7.42
2023-04-10T02:28:34.140Z,7.42
2023-04-10T02:29:34.133Z,7.27
2023-04-10T02:30:34.111Z,7.23
2023-04-10T02:31:34.149Z,7.16
2023-04-10T02:32:34.096Z,7.14
2023-04-10T02:33:34.069Z,7.19
2023-04-10T02:34:34.046Z,7.27
2023-04-10T02:35:34.060Z,7.18
2023-04-10T02:36:34.053Z,7.14
2023-04-10T02:37:33.991Z,7.12
2023-04-10T02:38:33.979Z,7.00
2023-04-10T02:39:33.960Z,6.90
2023-04-10T02:40:33.962Z,6.83
2023-04-10T02:41:33.938Z,6.78
2023-04-10T02:42:33.917Z,6.72
2023-04-10T02:43:33.899Z,6.73
2023-04-10T02:44:33.896Z,6.69
2023-04-10T02:45:33.872Z,6.58
2023-04-10T02:46:33.905Z,6.55
2023-04-10T02:47:33.852Z,6.46
2023-04-10T02:48:33.821Z,6.48
2023-04-10T02:49:33.808Z,6.46
2023-04-10T02:50:33.809Z,6.45
2023-04-10T02:51:33.777Z,6.45
2023-04-10T02:52:33.778Z,6.55
2023-04-10T02:53:33.748Z,6.45
2023-04-10T02:54:33.726Z,6.45
2023-04-10T02:55:33.717Z,6.38
2023-04-10T02:56:33.698Z,6.48
2023-04-10T02:57:33.680Z,6.50
2023-04-10T02:58:33.663Z,6.43
2023-04-10T02:59:33.642Z,6.55
2023-04-10T03:00:33.632Z,6.60
2023-04-10T03:01:33.760Z,6.58
2023-04-10T03:02:33.731Z,6.71
2023-04-10T03:03:33.663Z,6.83
2023-04-10T03:04:33.717Z,6.82
2023-04-10T03:05:33.547Z,6.69
2023-04-10T03:06:33.534Z,6.72
2023-04-10T03:07:33.516Z,6.65
2023-04-10T03:08:33.526Z,6.64
2023-04-10T03:09:33.483Z,6.55
2023-04-10T03:10:33.470Z,6.55
2023-04-10T03:11:33.450Z,6.58
2023-04-10T03:12:33.438Z,6.45
2023-04-10T03:13:33.421Z,6.51
2023-04-10T03:14:33.406Z,6.57
2023-04-10T03:15:33.398Z,6.40
2023-04-10T03:16:33.509Z,6.33
2023-04-10T03:17:33.392Z,6.39
2023-04-10T03:18:33.341Z,6.36
2023-04-10T03:19:33.329Z,6.43
2023-04-10T03:20:33.309Z,6.45
2023-04-10T03:21:33.289Z,6.58
2023-04-10T03:22:33.279Z,6.57
2023-04-10T03:23:33.268Z,6.39
2023-04-10T03:24:33.275Z,6.50
2023-04-10T03:25:33.226Z,6.45
2023-04-10T03:26:33.212Z,6.33
2023-04-10T03:27:33.194Z,6.28
2023-04-10T03:28:33.181Z,6.16
2023-04-10T03:29:33.161Z,6.17
2023-04-10T03:30:33.149Z,6.21
2023-04-10T03:31:33.169Z,6.06
2023-04-10T03:32:33.116Z,6.08
2023-04-10T03:33:33.112Z,6.24
2023-04-10T03:34:33.088Z,6.16
2023-04-10T03:35:33.081Z,6.05
2023-04-10T03:36:33.059Z,5.93
2023-04-10T03:37:33.034Z,5.93
2023-04-10T03:38:33.024Z,5.90
2023-04-10T03:39:33.002Z,5.84
2023-04-10T03:40:33.014Z,5.88
2023-04-10T03:41:32.973Z,5.87
2023-04-10T03:42:32.956Z,6.02
2023-04-10T03:43:32.951Z,5.98
2023-04-10T03:44:32.926Z,5.88
2023-04-10T03:45:32.903Z,6.02
2023-04-10T03:46:32.920Z,6.03
2023-04-10T03:47:32.911Z,5.93
2023-04-10T03:48:32.860Z,5.93
2023-04-10T03:49:32.847Z,5.95
2023-04-10T03:50:32.826Z,5.83
2023-04-10T03:51:32.816Z,5.73
2023-04-10T03:52:32.801Z,5.78
2023-04-10T03:53:34.976Z,5.77
2023-04-10T03:54:32.768Z,5.73
2023-04-10T03:55:32.767Z,5.65
2023-04-10T03:56:32.765Z,5.59
2023-04-10T03:57:32.723Z,5.60
2023-04-10T03:58:32.694Z,5.60
2023-04-10T03:59:38.590Z,5.47
2023-04-10T04:00:32.663Z,5.44
2023-04-10T04:01:32.643Z,5.38
2023-04-10T04:02:32.754Z,5.44
2023-04-10T04:03:32.699Z,5.44
2023-04-10T04:04:32.764Z,5.44
2023-04-10T04:05:32.580Z,5.38
2023-04-10T04:06:32.564Z,5.40
2023-04-10T04:07:32.545Z,5.42
2023-04-10T04:08:32.541Z,5.35
2023-04-10T04:09:32.513Z,5.44
2023-04-10T04:10:32.504Z,5.44
2023-04-10T04:11:32.480Z,5.42
2023-04-10T04:12:32.492Z,5.35
2023-04-10T04:13:32.449Z,5.47
2023-04-10T04:14:32.444Z,5.47
2023-04-10T04:15:32.415Z,5.52
2023-04-10T04:16:32.427Z,5.44
2023-04-10T04:17:32.408Z,5.47
2023-04-10T04:18:32.370Z,5.48
2023-04-10T04:19:32.353Z,5.45
2023-04-10T04:20:32.337Z,5.51
2023-04-10T04:21:32.324Z,5.35
2023-04-10T04:22:32.305Z,5.41
2023-04-10T04:23:32.288Z,5.42
2023-04-10T04:24:32.272Z,5.41
2023-04-10T04:25:32.259Z,5.44
2023-04-10T04:26:32.235Z,5.41
2023-04-10T04:27:32.218Z,5.37
2023-04-10T04:28:32.235Z,5.35
2023-04-10T04:29:32.185Z,5.37
2023-04-10T04:30:32.177Z,5.40
2023-04-10T04:31:32.211Z,5.44
2023-04-10T04:32:32.203Z,5.37
2023-04-10T04:33:32.145Z,5.38
2023-04-10T04:34:32.120Z,5.35
2023-04-10T04:35:32.090Z,5.41
2023-04-10T04:36:32.078Z,5.37
2023-04-10T04:37:32.057Z,5.30
2023-04-10T04:38:32.045Z,5.35
2023-04-10T04:39:32.024Z,5.42
2023-04-10T04:40:32.014Z,5.37
2023-04-10T04:41:31.998Z,5.38
2023-04-10T04:42:31.981Z,5.40
2023-04-10T04:43:31.960Z,5.42
2023-04-10T04:44:31.976Z,5.42
2023-04-10T04:45:31.927Z,5.41
2023-04-10T04:46:31.961Z,5.42
2023-04-10T04:47:31.952Z,5.47
2023-04-10T04:48:31.882Z,5.41
2023-04-10T04:49:31.862Z,5.30
2023-04-10T04:50:31.854Z,5.42
2023-04-10T04:51:31.840Z,5.42
2023-04-10T04:52:31.818Z,5.41
2023-04-10T04:53:31.814Z,5.38
2023-04-10T04:54:31.783Z,5.44
2023-04-10T04:55:31.800Z,5.38
2023-04-10T04:56:31.752Z,5.38
2023-04-10T04:57:31.736Z,5.40
2023-04-10T04:58:31.726Z,5.38
2023-04-10T04:59:31.702Z,5.42
2023-04-10T05:00:31.707Z,5.42
2023-04-10T05:01:31.699Z,5.40
2023-04-10T05:02:31.809Z,5.45
2023-04-10T05:03:31.754Z,5.44
2023-04-10T05:04:31.617Z,5.41
2023-04-10T05:05:31.603Z,5.48
2023-04-10T05:06:31.585Z,5.47
2023-04-10T05:07:31.573Z,5.58
2023-04-10T05:08:31.562Z,5.55
2023-04-10T05:09:31.539Z,5.47
2023-04-10T05:10:31.520Z,5.52
2023-04-10T05:11:31.704Z,5.59
2023-04-10T05:12:31.484Z,5.47
2023-04-10T05:13:31.470Z,5.56
2023-04-10T05:14:31.450Z,5.65
2023-04-10T05:15:31.462Z,5.69
2023-04-10T05:16:31.458Z,5.83
2023-04-10T05:17:31.431Z,5.90
2023-04-10T05:18:31.479Z,6.14
2023-04-10T05:19:31.370Z,6.35
2023-04-10T05:20:31.353Z,6.25
2023-04-10T05:21:31.337Z,6.32
2023-04-10T05:22:31.324Z,6.58
2023-04-10T05:23:31.305Z,6.69
2023-04-10T05:24:31.287Z,6.81
2023-04-10T05:25:31.273Z,6.99
2023-04-10T05:26:31.256Z,7.01
2023-04-10T05:27:31.251Z,6.99
2023-04-10T05:28:31.229Z,7.00
2023-04-10T05:29:31.208Z,6.97
2023-04-10T05:30:31.188Z,6.90
2023-04-10T05:31:31.346Z,6.75
2023-04-10T05:32:31.188Z,6.71
2023-04-10T05:33:31.158Z,6.76
2023-04-10T05:34:31.121Z,6.71
2023-04-10T05:35:31.134Z,6.69
2023-04-10T05:36:31.097Z,6.86
2023-04-10T05:37:31.097Z,6.78
2023-04-10T05:38:31.064Z,6.75
2023-04-10T05:39:31.048Z,6.83
2023-04-10T05:40:31.031Z,6.87
2023-04-10T05:41:31.017Z,6.91
2023-04-10T05:42:30.998Z,6.94
2023-04-10T05:43:30.984Z,7.00
2023-04-10T05:44:30.975Z,7.01
2023-04-10T05:45:30.969Z,7.00
2023-04-10T05:46:30.982Z,7.05
2023-04-10T05:47:30.936Z,6.99
2023-04-10T05:48:30.934Z,7.16
2023-04-10T05:49:30.889Z,7.08
2023-04-10T05:50:30.870Z,7.18
2023-04-10T05:51:30.865Z,7.21
2023-04-10T05:52:30.841Z,7.11
2023-04-10T05:53:30.826Z,7.18
2023-04-10T05:54:30.815Z,7.16
2023-04-10T05:55:30.794Z,7.09
2023-04-10T05:56:30.776Z,7.01
2023-04-10T05:57:30.786Z,7.09
2023-04-10T05:58:30.745Z,7.04
2023-04-10T05:59:30.736Z,7.08
2023-04-10T06:00:30.767Z,7.05
2023-04-10T06:01:30.700Z,7.01
2023-04-10T06:02:30.953Z,7.11
2023-04-10T06:03:30.989Z,7.14
2023-04-10T06:04:30.753Z,7.15
2023-04-10T06:05:30.662Z,7.23
2023-04-10T06:06:30.619Z,7.24
2023-04-10T06:07:30.608Z,7.33
2023-04-10T06:08:30.589Z,7.34
2023-04-10T06:09:30.575Z,7.39
2023-04-10T06:10:30.557Z,7.45
2023-04-10T06:11:30.554Z,7.51
2023-04-10T06:12:30.534Z,7.66
2023-04-10T06:13:30.511Z,7.67
2023-04-10T06:14:30.494Z,7.62
2023-04-10T06:15:30.482Z,7.62
2023-04-10T06:16:30.587Z,7.67
2023-04-10T06:17:30.479Z,7.66
2023-04-10T06:18:30.450Z,7.70
2023-04-10T06:19:30.448Z,7.66
2023-04-10T06:20:30.425Z,7.76
2023-04-10T06:21:30.388Z,7.74
2023-04-10T06:22:30.370Z,7.84
2023-04-10T06:23:30.365Z,7.88
2023-04-10T06:24:30.341Z,7.88
2023-04-10T06:25:30.331Z,7.92
2023-04-10T06:26:30.311Z,7.94
2023-04-10T06:27:30.299Z,8.00
2023-04-10T06:28:30.280Z,8.14
2023-04-10T06:29:30.447Z,8.10
2023-04-10T06:30:30.252Z,8.18
2023-04-10T06:31:30.262Z,8.22
2023-04-10T06:32:30.230Z,8.24
2023-04-10T06:33:30.210Z,8.29
2023-04-10T06:34:30.191Z,8.31
2023-04-10T06:35:30.321Z,8.34
2023-04-10T06:36:30.187Z,8.46
2023-04-10T06:37:30.150Z,8.65
2023-04-10T06:38:30.142Z,8.70
2023-04-10T06:39:30.125Z,8.75
2023-04-10T06:40:30.101Z,8.91
2023-04-10T06:41:30.106Z,9.04
2023-04-10T06:42:30.199Z,9.22
2023-04-10T06:43:30.060Z,9.27
2023-04-10T06:44:30.045Z,9.42
2023-04-10T06:45:30.031Z,9.50
2023-04-10T06:46:30.086Z,9.55
2023-04-10T06:47:30.054Z,9.74
2023-04-10T06:48:29.983Z,9.80
2023-04-10T06:49:29.971Z,9.92
2023-04-10T06:50:31.110Z,9.96
2023-04-10T06:51:29.945Z,10.07
2023-04-10T06:52:29.945Z,10.11
2023-04-10T06:53:29.916Z,10.25
2023-04-10T06:54:29.899Z,10.38
2023-04-10T06:55:30.081Z,10.28
2023-04-10T06:56:29.869Z,10.44
2023-04-10T06:57:29.858Z,10.49
2023-04-10T06:58:29.841Z,10.63
2023-04-10T06:59:29.836Z,10.75
2023-04-10T07:00:29.832Z,10.81
2023-04-10T07:01:29.805Z,10.78
2023-04-10T07:02:29.872Z,10.90
2023-04-10T07:03:29.793Z,10.99
2023-04-10T07:04:29.755Z,10.98
2023-04-10T07:05:29.746Z,11.16
2023-04-10T07:06:29.740Z,11.08
2023-04-10T07:07:29.729Z,11.19
2023-04-10T07:08:29.761Z,11.26
2023-04-10T07:09:29.699Z,11.28
2023-04-10T07:10:29.672Z,11.20
2023-04-10T07:11:29.668Z,11.26
2023-04-10T07:12:29.644Z,11.28
2023-04-10T07:13:29.635Z,11.39
2023-04-10T07:14:29.620Z,11.42
2023-04-10T07:15:29.607Z,11.49
2023-04-10T07:16:29.676Z,11.51
2023-04-10T07:17:29.596Z,11.66
2023-04-10T07:18:29.565Z,11.75
2023-04-10T07:19:29.555Z,11.84
2023-04-10T07:20:29.536Z,11.81
2023-04-10T07:21:29.523Z,11.90
2023-04-10T07:22:29.515Z,11.88
2023-04-10T07:23:29.505Z,11.96
2023-04-10T07:24:29.507Z,11.97
2023-04-10T07:25:29.475Z,12.01
2023-04-10T07:26:29.456Z,12.12
2023-04-10T07:27:29.450Z,12.12
2023-04-10T07:28:29.432Z,12.25
2023-04-10T07:29:29.427Z,12.22
2023-04-10T07:30:29.402Z,12.26
2023-04-10T07:31:29.476Z,12.31
2023-04-10T07:32:29.443Z,12.31
2023-04-10T07:33:29.449Z,12.34
2023-04-10T07:34:29.356Z,12.30
2023-04-10T07:35:29.342Z,12.19
2023-04-10T07:36:29.325Z,12.21
2023-04-10T07:37:29.319Z,12.21
2023-04-10T07:38:29.304Z,12.38
2023-04-10T07:39:29.291Z,12.41
2023-04-10T07:40:29.299Z,12.38
2023-04-10T07:41:29.268Z,12.23
2023-04-10T07:42:29.268Z,12.18
2023-04-10T07:43:29.249Z,12.05
2023-04-10T07:44:29.228Z,12.22
2023-04-10T07:45:29.233Z,12.21
2023-04-10T07:46:29.198Z,12.16
2023-04-10T07:47:29.273Z,12.22
2023-04-10T07:48:29.175Z,12.30
2023-04-10T07:49:29.172Z,12.33
2023-04-10T07:50:29.151Z,12.33
2023-04-10T07:51:29.156Z,12.37
2023-04-10T07:52:29.155Z,12.40
2023-04-10T07:53:29.113Z,12.46
2023-04-10T07:54:29.098Z,12.54
2023-04-10T07:55:29.097Z,12.66
2023-04-10T07:56:29.095Z,12.73
2023-04-10T07:57:29.066Z,12.77
2023-04-10T07:58:29.059Z,12.85
2023-04-10T07:59:29.059Z,12.95
2023-04-10T08:00:29.024Z,13.07
2023-04-10T08:01:29.147Z,13.22
2023-04-10T08:02:29.288Z,13.24
2023-04-10T08:03:29.158Z,13.24
2023-04-10T08:04:29.174Z,13.22
2023-04-10T08:05:29.029Z,13.14
2023-04-10T08:06:28.951Z,12.96
2023-04-10T08:07:28.940Z,12.92
2023-04-10T08:08:28.926Z,12.89
2023-04-10T08:09:28.934Z,12.94
2023-04-10T08:10:28.908Z,13.03
2023-04-10T08:11:28.896Z,13.12
2023-04-10T08:12:28.902Z,13.22
2023-04-10T08:13:28.869Z,13.31
2023-04-10T08:14:28.856Z,13.38
2023-04-10T08:15:28.846Z,13.51
2023-04-10T08:16:28.865Z,13.53
2023-04-10T08:17:28.882Z,13.63
2023-04-10T08:18:28.807Z,13.71
2023-04-10T08:19:28.800Z,13.81
2023-04-10T08:20:28.787Z,13.96
2023-04-10T08:21:28.776Z,13.96
2023-04-10T08:22:28.757Z,14.04
2023-04-10T08:23:28.749Z,14.08
2023-04-10T08:24:28.737Z,14.29
2023-04-10T08:25:28.723Z,14.19
2023-04-10T08:26:28.722Z,14.26
2023-04-10T08:27:28.709Z,14.42
2023-04-10T08:28:28.728Z,14.42
2023-04-10T08:29:28.697Z,14.45
2023-04-10T08:30:28.674Z,14.54
2023-04-10T08:31:28.903Z,14.54
2023-04-10T08:32:28.696Z,14.57
2023-04-10T08:33:28.632Z,14.53
2023-04-10T08:34:28.622Z,14.56
2023-04-10T08:35:28.611Z,14.72
2023-04-10T08:36:28.599Z,14.78
2023-04-10T08:37:28.590Z,14.78
2023-04-10T08:38:28.575Z,14.72
2023-04-10T08:39:28.566Z,14.74
2023-04-10T08:40:28.565Z,14.86
2023-04-10T08:41:28.574Z,14.91
2023-04-10T08:42:28.545Z,14.91
2023-04-10T08:43:28.523Z,14.97
2023-04-10T08:44:28.529Z,15.01
2023-04-10T08:45:28.506Z,15.07
2023-04-10T08:46:28.569Z,15.04
2023-04-10T08:47:28.507Z,15.07
2023-04-10T08:48:28.471Z,15.12
2023-04-10T08:49:28.458Z,15.12
2023-04-10T08:50:28.444Z,15.13
2023-04-10T08:51:28.436Z,15.20
2023-04-10T08:52:28.422Z,15.25
2023-04-10T08:53:28.428Z,15.19
2023-04-10T08:54:28.400Z,15.12
2023-04-10T08:55:28.403Z,15.16
2023-04-10T08:56:28.410Z,15.25
2023-04-10T08:57:28.381Z,15.30
2023-04-10T08:58:28.391Z,15.25
2023-04-10T08:59:28.350Z,15.37
2023-04-10T09:00:28.438Z,15.34
2023-04-10T09:01:28.395Z,15.18
2023-04-10T09:02:28.688Z,15.20
2023-04-10T09:03:28.479Z,15.28
2023-04-10T09:04:28.396Z,15.30
2023-04-10T09:05:28.312Z,15.43
2023-04-10T09:06:28.302Z,15.48
2023-04-10T09:07:28.274Z,15.48
2023-04-10T09:08:28.257Z,15.49
2023-04-10T09:09:28.248Z,15.64
2023-04-10T09:10:28.238Z,15.60
2023-04-10T09:11:28.227Z,15.70
2023-04-10T09:12:28.219Z,15.84
2023-04-10T09:13:28.204Z,15.86
2023-04-10T09:14:28.190Z,15.89
2023-04-10T09:15:28.186Z,15.96
2023-04-10T09:16:28.290Z,15.99
2023-04-10T09:17:28.185Z,15.92
2023-04-10T09:18:28.152Z,15.98
2023-04-10T09:19:28.148Z,16.10
2023-04-10T09:20:28.135Z,16.13
2023-04-10T09:21:28.123Z,16.16
2023-04-10T09:22:28.112Z,16.14
2023-04-10T09:23:28.105Z,16.06
2023-04-10T09:24:28.103Z,16.16
2023-04-10T09:25:28.086Z,16.07
2023-04-10T09:26:28.081Z,16.13
2023-04-10T09:27:28.065Z,16.16
2023-04-10T09:28:28.055Z,16.08
2023-04-10T09:29:28.041Z,16.14
2023-04-10T09:30:28.036Z,16.25
2023-04-10T09:31:28.038Z,16.27
2023-04-10T09:32:28.066Z,16.37
2023-04-10T09:33:28.060Z,16.51
2023-04-10T09:34:28.005Z,16.54
2023-04-10T09:35:27.991Z,16.50
2023-04-10T09:36:28.006Z,16.50
2023-04-10T09:37:27.962Z,16.54
2023-04-10T09:38:27.958Z,16.50
2023-04-10T09:39:27.947Z,16.52
2023-04-10T09:40:27.952Z,16.50
2023-04-10T09:41:27.941Z,16.51
2023-04-10T09:42:27.923Z,16.54
2023-04-10T09:43:27.914Z,16.41
2023-04-10T09:44:27.906Z,16.50
2023-04-10T09:45:27.891Z,16.51
2023-04-10T09:46:27.913Z,16.50
2023-04-10T09:47:27.912Z,16.47
2023-04-10T09:48:27.888Z,16.44
2023-04-10T09:49:27.855Z,16.45
2023-04-10T09:50:27.846Z,16.41
2023-04-10T09:51:27.835Z,16.45
2023-04-10T09:52:27.842Z,16.50
2023-04-10T09:53:27.855Z,16.41
2023-04-10T09:54:27.809Z,16.44
2023-04-10T09:55:27.795Z,16.40
2023-04-10T09:56:27.815Z,16.48
2023-04-10T09:57:27.779Z,16.47
2023-04-10T09:58:27.786Z,16.44
2023-04-10T09:59:27.760Z,16.52
2023-04-10T10:00:27.755Z,16.69
2023-04-10T10:01:27.789Z,16.77
2023-04-10T10:02:27.825Z,16.54
2023-04-10T10:03:27.848Z,16.47
2023-04-10T10:04:27.889Z,16.55
2023-04-10T10:05:27.704Z,16.55
2023-04-10T10:06:27.708Z,16.59
2023-04-10T10:07:27.694Z,16.65
2023-04-10T10:08:27.680Z,16.65
2023-04-10T10:09:29.221Z,16.72
2023-04-10T10:10:27.683Z,16.78
2023-04-10T10:11:27.650Z,16.81
2023-04-10T10:12:27.646Z,16.81
2023-04-10T10:13:27.633Z,16.85
2023-04-10T10:14:27.637Z,16.90
2023-04-10T10:15:27.620Z,16.85
2023-04-10T10:16:27.668Z,16.96
2023-04-10T10:17:27.624Z,16.92
2023-04-10T10:18:27.592Z,16.96
2023-04-10T10:19:27.579Z,16.91
2023-04-10T10:20:27.600Z,16.96
2023-04-10T10:21:27.563Z,16.98
2023-04-10T10:22:27.558Z,16.95
2023-04-10T10:23:27.550Z,16.96
2023-04-10T10:24:27.543Z,17.02
2023-04-10T10:25:27.530Z,17.06
2023-04-10T10:26:27.528Z,17.09
2023-04-10T10:27:27.539Z,17.30
2023-04-10T10:28:27.508Z,17.38
2023-04-10T10:29:27.495Z,17.38
2023-04-10T10:30:30.353Z,17.35
2023-04-10T10:31:27.529Z,17.42
2023-04-10T10:32:27.494Z,17.53
2023-04-10T10:33:27.463Z,17.55
2023-04-10T10:34:27.454Z,17.60
2023-04-10T10:35:29.602Z,17.68
2023-04-10T10:36:27.505Z,17.74
2023-04-10T10:37:27.429Z,17.87
2023-04-10T10:38:27.426Z,17.99
2023-04-10T10:39:27.411Z,18.01
2023-04-10T10:40:27.411Z,18.11
2023-04-10T10:41:27.393Z,18.14
2023-04-10T10:42:27.393Z,18.19
2023-04-10T10:43:27.397Z,18.10
2023-04-10T10:44:27.382Z,18.04
2023-04-10T10:45:27.402Z,18.07
2023-04-10T10:46:27.363Z,18.14
2023-04-10T10:47:27.424Z,18.16
2023-04-10T10:48:27.342Z,18.31
2023-04-10T10:49:27.331Z,18.28
2023-04-10T10:50:27.324Z,18.35
2023-04-10T10:51:27.313Z,18.32
2023-04-10T10:52:27.330Z,18.46
2023-04-10T10:53:27.301Z,18.53
2023-04-10T10:54:27.294Z,18.60
2023-04-10T10:55:27.282Z,18.53
2023-04-10T10:56:27.279Z,18.59
2023-04-10T10:57:27.265Z,18.59
2023-04-10T10:58:27.261Z,18.64
2023-04-10T10:59:27.249Z,18.68
2023-04-10T11:00:27.251Z,18.71
2023-04-10T11:01:27.274Z,18.74
2023-04-10T11:02:27.387Z,18.54
2023-04-10T11:03:27.454Z,18.64
2023-04-10T11:04:27.221Z,18.71
2023-04-10T11:05:27.204Z,18.75
2023-04-10T11:06:27.206Z,18.78
2023-04-10T11:07:27.189Z,18.84
2023-04-10T11:08:27.204Z,18.82
2023-04-10T11:09:27.175Z,18.90
2023-04-10T11:10:27.168Z,18.91
2023-04-10T11:11:27.164Z,18.93
2023-04-10T11:12:27.152Z,18.99
2023-04-10T11:13:27.141Z,19.09
2023-04-10T11:14:27.143Z,19.05
2023-04-10T11:15:27.127Z,19.17
2023-04-10T11:16:27.177Z,19.16
2023-04-10T11:17:27.183Z,19.09
2023-04-10T11:18:27.110Z,19.09
2023-04-10T11:19:27.441Z,19.09
2023-04-10T11:20:27.121Z,19.13
2023-04-10T11:21:27.082Z,19.20
2023-04-10T11:22:27.078Z,19.23
2023-04-10T11:23:27.070Z,19.34
2023-04-10T11:24:27.093Z,19.38
2023-04-10T11:25:27.054Z,19.49
2023-04-10T11:26:27.051Z,19.55
2023-04-10T11:27:27.715Z,19.65
2023-04-10T11:28:27.036Z,19.62
2023-04-10T11:29:27.042Z,19.64
2023-04-10T11:30:27.029Z,19.60
2023-04-10T11:31:27.029Z,19.67
2023-04-10T11:32:27.043Z,19.65
2023-04-10T11:33:26.994Z,19.65
2023-04-10T11:34:26.996Z,19.75
2023-04-10T11:35:27.132Z,19.78
2023-04-10T11:36:26.996Z,19.83
2023-04-10T11:37:26.967Z,19.87
2023-04-10T11:38:26.966Z,19.90
2023-04-10T11:39:26.950Z,19.92
2023-04-10T11:40:26.967Z,19.98
2023-04-10T11:41:26.937Z,20.05
2023-04-10T11:42:26.934Z,19.89
2023-04-10T11:43:26.926Z,19.87
2023-04-10T11:44:26.920Z,19.87
2023-04-10T11:45:26.913Z,19.92
2023-04-10T11:46:27.069Z,19.92
2023-04-10T11:47:26.915Z,19.87
2023-04-10T11:48:26.895Z,19.76
2023-04-10T11:49:26.882Z,19.72
2023-04-10T11:50:26.884Z,19.60
2023-04-10T11:51:26.870Z,19.64
2023-04-10T11:52:26.865Z,19.62
2023-04-10T11:53:26.866Z,19.62
2023-04-10T11:54:26.888Z,19.70
2023-04-10T11:55:26.844Z,19.62
2023-04-10T11:56:26.877Z,19.53
2023-04-10T11:57:26.828Z,19.64
2023-04-10T11:58:26.850Z,19.58
2023-04-10T11:59:26.830Z,19.45
2023-04-10T12:00:26.822Z,19.52
2023-04-10T12:01:26.802Z,19.42
2023-04-10T12:02:26.963Z,19.21
2023-04-10T12:03:26.910Z,19.15
2023-04-10T12:04:26.974Z,19.27
2023-04-10T12:05:26.799Z,19.28
2023-04-10T12:06:26.773Z,19.32
2023-04-10T12:07:26.762Z,19.23
2023-04-10T12:08:26.758Z,19.05
2023-04-10T12:09:26.749Z,19.02
2023-04-10T12:10:26.746Z,18.97
2023-04-10T12:11:26.744Z,18.60
2023-04-10T12:12:26.750Z,18.44
2023-04-10T12:13:26.718Z,18.41
2023-04-10T12:14:26.717Z,18.54
2023-04-10T12:15:26.755Z,18.54
2023-04-10T12:16:26.706Z,18.78
2023-04-10T12:17:26.729Z,18.82
2023-04-10T12:18:26.690Z,19.06
2023-04-10T12:19:26.681Z,19.15
2023-04-10T12:20:26.711Z,19.09
2023-04-10T12:21:26.663Z,19.15
2023-04-10T12:22:26.660Z,19.24
2023-04-10T12:23:26.648Z,19.31
2023-04-10T12:24:26.661Z,19.42
2023-04-10T12:25:26.634Z,19.52
2023-04-10T12:26:26.633Z,19.64
2023-04-10T12:27:26.726Z,19.65
2023-04-10T12:28:26.641Z,19.79
2023-04-10T12:29:26.612Z,19.75
2023-04-10T12:30:26.604Z,19.83
2023-04-10T12:31:26.637Z,19.89
2023-04-10T12:32:26.653Z,19.94
2023-04-10T12:33:26.591Z,20.01
2023-04-10T12:34:26.584Z,20.12
2023-04-10T12:35:26.606Z,20.12
2023-04-10T12:36:26.582Z,20.15
2023-04-10T12:37:26.568Z,20.27
2023-04-10T12:38:26.556Z,20.25
2023-04-10T12:39:26.546Z,20.30
2023-04-10T12:40:26.544Z,20.30
2023-04-10T12:41:26.538Z,20.38
2023-04-10T12:42:26.530Z,20.35
2023-04-10T12:43:26.523Z,20.50
2023-04-10T12:44:26.540Z,20.46
2023-04-10T12:45:26.514Z,20.69
2023-04-10T12:46:26.603Z,20.75
2023-04-10T12:47:26.577Z,20.78
2023-04-10T12:48:26.499Z,20.87
2023-04-10T12:49:26.485Z,20.93
2023-04-10T12:50:26.483Z,20.97
2023-04-10T12:51:26.473Z,20.94
2023-04-10T12:52:26.477Z,20.79
2023-04-10T12:53:26.458Z,20.73
2023-04-10T12:54:26.457Z,20.68
2023-04-10T12:55:26.486Z,20.64
2023-04-10T12:56:26.447Z,20.61
2023-04-10T12:57:26.435Z,20.63
2023-04-10T12:58:26.436Z,20.56
2023-04-10T12:59:26.455Z,20.50
2023-04-10T13:00:26.461Z,20.53
2023-04-10T13:01:26.425Z,20.54
2023-04-10T13:02:26.564Z,20.53
2023-04-10T13:03:26.580Z,20.61
2023-04-10T13:04:26.551Z,20.64
2023-04-10T13:05:26.383Z,20.68